Hawk Springs, Wyoming
Current Conditions -  °F | °C
As of 10:53 PM on Tuesday 27 Jan 2015 (Local Time) from KTOR Reporting Station
Clear Clear  
Wind Chill: 46°   Ceiling: Unl
Heat Index: 46°   Visibility: 10mi
Dew Point: 26°   Wind: 3mph
Humidity: 46%   Direction: 220°SW
Pressure: 29.96"   Gusts: NA
Location:  41.79°N, 104.27°W
Report Text: KTOR 280553Z AUTO 22003KT 10SM CLR 08/M03 A2996 RMK AO2 SLP129 T00781033 10172 20061 55001 $
Loading
Personal Weather Stations






























Interactive Weather Map New forecast layout! Learn more

10-Day Weather Forecast

Advertisements
Track Severe Weather on mobile